createdAt,value
2023-02-13T00:00:32.217Z,7.15
2023-02-13T00:03:35.245Z,7.43
2023-02-13T00:06:37.797Z,6.75
2023-02-13T00:09:40.572Z,5.97
2023-02-13T00:12:42.993Z,6.47
2023-02-13T00:15:45.780Z,8.50
2023-02-13T00:18:48.162Z,8.90
2023-02-13T00:21:50.820Z,9.73
2023-02-13T00:24:53.318Z,13.98
2023-02-13T00:27:56.322Z,14.50
2023-02-13T00:31:10.991Z,15.38
2023-02-13T00:34:13.927Z,16.58
2023-02-13T00:37:16.443Z,15.40
2023-02-13T00:40:19.638Z,15.07
2023-02-13T00:43:22.233Z,15.27
2023-02-13T00:46:24.946Z,15.85
2023-02-13T00:49:28.568Z,16.95
2023-02-13T00:52:31.359Z,15.80
2023-02-13T00:55:35.345Z,16.25
2023-02-13T00:58:39.050Z,15.07
2023-02-13T01:01:41.710Z,13.48
2023-02-13T01:04:44.604Z,13.93
2023-02-13T01:07:47.009Z,13.60
2023-02-13T01:10:50.031Z,12.70
2023-02-13T01:13:52.458Z,11.53
2023-02-13T01:16:56.306Z,11.30
2023-02-13T01:19:59.564Z,11.88
2023-02-13T01:23:02.350Z,12.70
2023-02-13T01:26:06.707Z,12.75
2023-02-13T01:29:13.153Z,12.50
2023-02-13T01:32:15.715Z,12.70
2023-02-13T01:35:18.587Z,13.07
2023-02-13T01:38:21.015Z,11.88
2023-02-13T01:41:25.365Z,12.60
2023-02-13T01:45:18.538Z,11.93
2023-02-13T01:48:26.990Z,12.15
2023-02-13T01:51:33.758Z,12.37
2023-02-13T01:54:37.029Z,11.18
2023-02-13T01:57:41.489Z,12.57
2023-02-13T02:00:49.991Z,12.97
2023-02-13T02:03:57.694Z,13.27
2023-02-13T02:07:06.522Z,14.93
2023-02-13T02:10:14.649Z,12.77
2023-02-13T02:13:21.270Z,13.77
2023-02-13T02:16:26.941Z,14.27
2023-02-13T02:19:51.322Z,14.80
2023-02-13T02:23:45.390Z,12.63
2023-02-13T02:27:11.164Z,13.90
2023-02-13T02:30:45.897Z,13.50
2023-02-13T02:33:54.531Z,12.37
2023-02-13T02:37:28.629Z,13.88
2023-02-13T02:40:37.460Z,14.20
2023-02-13T02:43:49.346Z,13.80
2023-02-13T02:47:24.868Z,14.43
2023-02-13T02:50:39.761Z,14.60
2023-02-13T02:54:30.675Z,15.00
2023-02-13T02:57:59.740Z,15.25
2023-02-13T03:01:23.916Z,16.05
2023-02-13T03:04:54.820Z,15.13
2023-02-13T03:07:57.552Z,15.17
2023-02-13T03:11:18.705Z,16.10
2023-02-13T03:14:26.652Z,16.48
2023-02-13T03:17:47.695Z,16.55
2023-02-13T03:21:29.645Z,16.65
2023-02-13T03:24:50.421Z,16.70
2023-02-13T03:28:20.727Z,17.10
2023-02-13T03:31:36.807Z,16.25
2023-02-13T03:35:06.933Z,17.27
2023-02-13T03:38:20.691Z,17.60
2023-02-13T03:41:30.807Z,17.27
2023-02-13T03:45:08.475Z,17.80
2023-02-13T03:48:47.636Z,18.37
2023-02-13T03:52:06.830Z,19.17
2023-02-13T03:55:31.088Z,17.58
2023-02-13T03:58:59.848Z,16.03
2023-02-13T04:02:15.845Z,16.25
2023-02-13T04:05:24.699Z,16.92
2023-02-13T04:08:27.151Z,15.55
2023-02-13T04:12:14.500Z,14.77
2023-02-13T04:15:26.536Z,15.73
2023-02-13T04:18:32.260Z,15.63
2023-02-13T04:21:36.454Z,14.77
2023-02-13T04:24:39.156Z,15.23
2023-02-13T04:27:41.526Z,14.90
2023-02-13T04:30:44.419Z,16.40
2023-02-13T04:33:46.876Z,15.68
2023-02-13T04:36:49.645Z,15.70
2023-02-13T04:39:52.071Z,15.77
2023-02-13T04:42:54.801Z,15.25
2023-02-13T04:45:57.279Z,15.10
2023-02-13T04:48:59.983Z,14.82
2023-02-13T04:52:02.568Z,14.27
2023-02-13T04:55:05.572Z,14.10
2023-02-13T04:58:08.229Z,12.95
2023-02-13T05:01:16.374Z,14.53
2023-02-13T05:04:18.850Z,13.40
2023-02-13T05:07:21.633Z,12.90
2023-02-13T05:10:24.106Z,11.85
2023-02-13T05:13:27.072Z,11.70
2023-02-13T05:16:29.618Z,10.93
2023-02-13T05:19:32.394Z,10.82
2023-02-13T05:22:53.552Z,11.07
2023-02-13T05:25:56.301Z,10.88
2023-02-13T05:29:17.316Z,10.77
2023-02-13T05:32:20.011Z,11.13
2023-02-13T05:35:23.550Z,10.65
2023-02-13T05:38:26.329Z,12.82
2023-02-13T05:41:28.854Z,11.63
2023-02-13T05:44:32.295Z,12.02
2023-02-13T05:47:34.682Z,11.10
2023-02-13T05:50:38.766Z,12.00
2023-02-13T05:53:41.592Z,11.98
2023-02-13T05:56:44.675Z,12.63
2023-02-13T05:59:47.512Z,12.20
2023-02-13T06:02:52.277Z,11.60
2023-02-13T06:05:55.806Z,11.60
2023-02-13T06:08:58.176Z,11.35
2023-02-13T06:12:00.904Z,12.25
2023-02-13T06:15:04.163Z,12.10
2023-02-13T06:18:07.395Z,11.23
2023-02-13T06:21:09.945Z,11.25
2023-02-13T06:24:12.732Z,11.90
2023-02-13T06:27:15.668Z,11.52
2023-02-13T06:30:19.226Z,12.57
2023-02-13T06:33:21.633Z,11.30
2023-02-13T06:36:24.443Z,11.48
2023-02-13T06:39:26.888Z,11.45
2023-02-13T06:42:29.721Z,12.23
2023-02-13T06:45:32.887Z,11.30
2023-02-13T06:48:36.169Z,11.63
2023-02-13T06:51:38.563Z,11.75
2023-02-13T06:54:47.819Z,11.70
2023-02-13T06:57:50.841Z,11.90
2023-02-13T07:00:53.891Z,12.45
2023-02-13T07:03:56.422Z,12.63
2023-02-13T07:06:59.370Z,13.75
2023-02-13T07:10:01.853Z,13.35
2023-02-13T07:13:06.472Z,12.77
2023-02-13T07:16:09.729Z,16.67
2023-02-13T07:19:12.495Z,13.13
2023-02-13T07:22:14.995Z,13.55
2023-02-13T07:25:19.661Z,14.13
2023-02-13T07:28:22.122Z,14.68
2023-02-13T07:31:24.913Z,14.52
2023-02-13T07:34:27.538Z,14.57
2023-02-13T07:37:33.019Z,14.40
2023-02-13T07:40:35.449Z,14.73
2023-02-13T07:43:38.437Z,15.25
2023-02-13T07:46:40.990Z,14.07
2023-02-13T07:49:44.747Z,14.93
2023-02-13T07:52:54.561Z,14.80
2023-02-13T07:55:57.854Z,15.45
2023-02-13T07:59:00.496Z,15.35
2023-02-13T08:02:03.410Z,15.43
2023-02-13T08:05:08.152Z,14.57
2023-02-13T08:08:13.206Z,14.63
2023-02-13T08:11:50.314Z,12.85
2023-02-13T08:14:54.216Z,12.02
2023-02-13T08:17:57.242Z,12.70
2023-02-13T08:21:02.616Z,13.07
2023-02-13T08:24:05.805Z,11.10
2023-02-13T08:27:12.678Z,11.63
2023-02-13T08:30:16.231Z,11.93
2023-02-13T08:33:18.968Z,12.23
2023-02-13T08:36:21.856Z,12.10
2023-02-13T08:39:24.651Z,12.13
2023-02-13T08:42:27.668Z,11.95
2023-02-13T08:45:30.987Z,11.80
2023-02-13T08:48:33.804Z,12.05
2023-02-13T08:51:36.391Z,12.10
2023-02-13T08:54:39.176Z,12.30
2023-02-13T08:57:41.796Z,12.85
2023-02-13T09:00:45.116Z,12.85
2023-02-13T09:03:47.695Z,13.95
2023-02-13T09:06:50.500Z,13.23
2023-02-13T09:09:53.963Z,11.90
2023-02-13T09:12:57.385Z,13.43
2023-02-13T09:16:01.573Z,12.32
2023-02-13T09:19:04.608Z,13.23
2023-02-13T09:22:07.495Z,13.03
2023-02-13T09:25:10.554Z,12.75
2023-02-13T09:28:13.087Z,12.57
2023-02-13T09:31:18.509Z,12.98
2023-02-13T09:34:21.389Z,10.40
2023-02-13T09:37:25.267Z,11.80
2023-02-13T09:40:35.603Z,11.93
2023-02-13T09:43:43.849Z,11.55
2023-02-13T09:46:46.628Z,12.55
2023-02-13T09:49:57.297Z,12.25
2023-02-13T09:53:00.318Z,11.30
2023-02-13T09:56:14.708Z,11.32
2023-02-13T09:59:31.691Z,10.88
2023-02-13T10:02:52.715Z,10.90
2023-02-13T10:06:33.395Z,11.68
2023-02-13T10:09:50.526Z,11.73
2023-02-13T10:13:23.736Z,11.10
2023-02-13T10:16:34.455Z,10.63
2023-02-13T10:19:50.592Z,12.52
2023-02-13T10:23:03.186Z,11.40
2023-02-13T10:26:42.708Z,12.00
2023-02-13T10:30:05.255Z,11.30
2023-02-13T10:33:20.167Z,11.82
2023-02-13T10:36:29.517Z,11.27
2023-02-13T10:39:32.448Z,10.43
2023-02-13T10:42:38.594Z,11.90
2023-02-13T10:45:47.251Z,11.60
2023-02-13T10:49:08.228Z,12.13
2023-02-13T10:52:39.016Z,11.75
2023-02-13T10:55:59.643Z,11.70
2023-02-13T10:59:16.463Z,10.87
2023-02-13T11:02:25.598Z,11.73
2023-02-13T11:05:39.270Z,12.48
2023-02-13T11:08:46.221Z,13.00
2023-02-13T11:11:50.262Z,11.85
2023-02-13T11:15:04.702Z,13.43
2023-02-13T11:18:19.760Z,12.85
2023-02-13T11:21:34.586Z,12.15
2023-02-13T11:24:41.799Z,12.18
2023-02-13T11:27:45.980Z,13.00
2023-02-13T11:30:49.188Z,12.30
2023-02-13T11:33:52.543Z,11.93
2023-02-13T11:37:21.659Z,12.13
2023-02-13T11:40:33.501Z,12.63
2023-02-13T11:44:01.485Z,12.48
2023-02-13T11:47:04.283Z,12.37
2023-02-13T11:50:22.627Z,12.60
2023-02-13T11:53:29.857Z,13.23
2023-02-13T11:57:04.441Z,13.13
2023-02-13T12:00:32.659Z,13.15
2023-02-13T12:03:35.951Z,13.00
2023-02-13T12:06:41.485Z,13.32
2023-02-13T12:09:47.971Z,13.38
2023-02-13T12:13:02.453Z,13.40
2023-02-13T12:16:14.524Z,14.57
2023-02-13T12:19:25.887Z,10.90
2023-02-13T12:22:28.778Z,10.93
2023-02-13T12:25:56.837Z,10.70
2023-02-13T12:29:23.257Z,10.15
2023-02-13T12:32:44.156Z,12.95
2023-02-13T12:35:59.284Z,13.17
2023-02-13T12:39:09.617Z,14.85
2023-02-13T12:42:30.202Z,11.70
2023-02-13T12:45:46.270Z,11.35
2023-02-13T12:49:04.161Z,10.38
2023-02-13T12:52:44.143Z,5.73
2023-02-13T12:55:53.438Z,6.95
2023-02-13T12:59:00.970Z,7.72
2023-02-13T13:02:45.465Z,4.80
2023-02-13T13:06:10.876Z,4.07
2023-02-13T13:09:43.442Z,3.43
2023-02-13T13:13:03.345Z,3.30
2023-02-13T13:16:24.206Z,3.62
2023-02-13T13:19:50.788Z,3.85
2023-02-13T13:23:08.314Z,4.00
2023-02-13T13:26:25.143Z,4.07
2023-02-13T13:29:30.759Z,4.10
2023-02-13T13:32:35.645Z,4.00
2023-02-13T13:35:55.017Z,4.12
2023-02-13T13:39:29.186Z,4.30
2023-02-13T13:42:41.442Z,4.03
2023-02-13T13:45:47.759Z,4.87
2023-02-13T13:48:56.740Z,5.78
2023-02-13T13:52:41.247Z,6.10
2023-02-13T13:55:47.066Z,5.07
2023-02-13T13:58:51.260Z,5.50
2023-02-13T14:02:19.815Z,4.65
2023-02-13T14:05:33.848Z,4.30
2023-02-13T14:08:41.909Z,4.62
2023-02-13T14:11:47.347Z,4.75
2023-02-13T14:14:52.672Z,5.23
2023-02-13T14:17:56.773Z,5.40
2023-02-13T14:21:03.736Z,5.60
2023-02-13T14:24:11.721Z,4.90
2023-02-13T14:27:28.193Z,6.80
2023-02-13T14:30:34.505Z,7.13
2023-02-13T14:33:37.079Z,7.72
2023-02-13T14:36:43.058Z,8.32
2023-02-13T14:40:20.364Z,7.97
2023-02-13T14:43:50.206Z,8.20
2023-02-13T14:46:55.541Z,8.20
2023-02-13T14:50:01.687Z,9.10
2023-02-13T14:53:14.830Z,8.32
2023-02-13T14:56:22.566Z,8.27
2023-02-13T14:59:29.286Z,8.23
2023-02-13T15:02:37.276Z,7.57
2023-02-13T15:05:41.253Z,7.47
2023-02-13T15:08:53.410Z,7.60
2023-02-13T15:11:55.893Z,6.95
2023-02-13T15:15:01.646Z,7.10
2023-02-13T15:18:22.438Z,6.50
2023-02-13T15:21:33.223Z,6.90
2023-02-13T15:24:46.290Z,7.22
2023-02-13T15:27:59.877Z,7.10
2023-02-13T15:31:05.736Z,7.65
2023-02-13T15:34:21.760Z,6.70
2023-02-13T15:37:28.462Z,6.10
2023-02-13T15:40:43.163Z,6.45
2023-02-13T15:43:49.336Z,6.30
2023-02-13T15:46:54.449Z,5.72
2023-02-13T15:49:57.570Z,5.93
2023-02-13T15:53:04.547Z,5.60
2023-02-13T15:56:14.064Z,5.57
2023-02-13T15:59:19.678Z,6.30
2023-02-13T16:02:28.602Z,5.43
2023-02-13T16:05:40.771Z,5.77
2023-02-13T16:08:53.199Z,4.80
2023-02-13T16:12:00.807Z,5.43
2023-02-13T16:15:05.823Z,5.47
2023-02-13T16:18:18.900Z,4.80
2023-02-13T16:21:27.784Z,5.40
2023-02-13T16:24:31.200Z,5.12
2023-02-13T16:27:34.686Z,5.32
2023-02-13T16:30:41.100Z,4.85
2023-02-13T16:33:45.102Z,5.22
2023-02-13T16:36:47.863Z,4.70
2023-02-13T16:39:50.304Z,4.78
2023-02-13T16:42:53.491Z,4.93
2023-02-13T16:46:12.506Z,4.85
2023-02-13T16:49:21.110Z,4.68
2023-02-13T16:52:28.844Z,5.23
2023-02-13T16:55:31.830Z,4.45
2023-02-13T16:58:34.690Z,5.32
2023-02-13T17:01:38.337Z,4.82
2023-02-13T17:04:43.308Z,5.12
2023-02-13T17:07:51.566Z,5.00
2023-02-13T17:11:08.494Z,5.20
2023-02-13T17:14:11.205Z,4.95
2023-02-13T17:17:19.650Z,5.05
2023-02-13T17:20:28.505Z,5.50
2023-02-13T17:23:31.350Z,5.40
2023-02-13T17:26:34.588Z,5.20
2023-02-13T17:29:37.144Z,5.53
2023-02-13T17:32:40.005Z,6.18
2023-02-13T17:35:42.602Z,5.87
2023-02-13T17:38:45.440Z,5.50
2023-02-13T17:41:50.294Z,5.82
2023-02-13T17:44:56.350Z,5.93
2023-02-13T17:48:02.120Z,5.07
2023-02-13T17:51:05.151Z,5.95
2023-02-13T17:54:12.384Z,6.13
2023-02-13T17:57:17.609Z,5.80
2023-02-13T18:00:21.604Z,6.37
2023-02-13T18:03:24.664Z,5.82
2023-02-13T18:06:27.246Z,6.32
2023-02-13T18:09:30.126Z,6.50
2023-02-13T18:12:32.583Z,6.97
2023-02-13T18:15:40.329Z,6.45
2023-02-13T18:18:42.797Z,6.87
2023-02-13T18:21:45.427Z,7.57
2023-02-13T18:24:48.064Z,7.20
2023-02-13T18:27:51.481Z,6.97
2023-02-13T18:30:55.237Z,7.28
2023-02-13T18:33:58.210Z,7.25
2023-02-13T18:37:00.828Z,7.82
2023-02-13T18:40:03.704Z,6.70
2023-02-13T18:43:06.145Z,7.10
2023-02-13T18:46:08.885Z,7.12
2023-02-13T18:49:12.618Z,7.57
2023-02-13T18:52:15.620Z,7.55
2023-02-13T18:55:19.676Z,7.57
2023-02-13T18:58:22.377Z,7.45
2023-02-13T19:01:24.956Z,7.72
2023-02-13T19:04:27.782Z,7.85
2023-02-13T19:07:30.349Z,7.62
2023-02-13T19:10:33.172Z,7.10
2023-02-13T19:13:35.914Z,6.78
2023-02-13T19:16:39.376Z,7.60
2023-02-13T19:19:44.372Z,7.90
2023-02-13T19:22:47.110Z,8.23
2023-02-13T19:25:49.581Z,7.67
2023-02-13T19:28:53.335Z,8.35
2023-02-13T19:31:57.155Z,7.32
2023-02-13T19:34:59.886Z,6.97
2023-02-13T19:38:02.344Z,7.25
2023-02-13T19:41:06.874Z,7.53
2023-02-13T19:44:09.207Z,7.07
2023-02-13T19:47:11.967Z,6.87
2023-02-13T19:50:16.818Z,6.78
2023-02-13T19:53:19.894Z,6.60
2023-02-13T19:56:22.311Z,6.20
2023-02-13T19:59:25.100Z,6.97
2023-02-13T20:02:28.070Z,7.47
2023-02-13T20:05:32.275Z,7.62
2023-02-13T20:08:35.291Z,7.10
2023-02-13T20:11:39.790Z,6.43
2023-02-13T20:14:42.194Z,7.45
2023-02-13T20:17:46.313Z,6.80
2023-02-13T20:20:48.577Z,7.65
2023-02-13T20:23:51.642Z,7.10
2023-02-13T20:26:57.034Z,7.20
2023-02-13T20:30:07.081Z,6.47
2023-02-13T20:33:10.853Z,7.12
2023-02-13T20:36:16.512Z,7.35
2023-02-13T20:39:19.191Z,7.20
2023-02-13T20:42:21.893Z,7.17
2023-02-13T20:45:24.424Z,6.68
2023-02-13T20:48:27.340Z,6.78
2023-02-13T20:51:29.880Z,7.18
2023-02-13T20:54:32.872Z,7.87
2023-02-13T20:57:36.481Z,7.30
2023-02-13T21:00:39.322Z,7.15
2023-02-13T21:03:42.359Z,8.20
2023-02-13T21:06:46.331Z,8.60
2023-02-13T21:09:48.964Z,9.45
2023-02-13T21:12:52.942Z,7.53
2023-02-13T21:16:04.433Z,7.93
2023-02-13T21:19:19.314Z,8.40
2023-02-13T21:22:21.725Z,5.45
2023-02-13T21:25:24.651Z,4.82
2023-02-13T21:28:27.061Z,5.17
2023-02-13T21:31:36.149Z,4.40
2023-02-13T21:34:38.853Z,4.95
2023-02-13T21:37:41.684Z,5.43
2023-02-13T21:40:46.322Z,5.12
2023-02-13T21:43:50.388Z,5.10
2023-02-13T21:46:52.779Z,4.70
2023-02-13T21:49:55.553Z,5.47
2023-02-13T21:52:58.021Z,5.15
2023-02-13T21:56:23.747Z,4.90
2023-02-13T21:59:26.517Z,4.60
2023-02-13T22:02:29.497Z,5.60
2023-02-13T22:05:32.302Z,4.95
2023-02-13T22:08:35.084Z,5.65
2023-02-13T22:11:38.754Z,5.28
2023-02-13T22:14:41.289Z,5.03
2023-02-13T22:17:44.261Z,5.50
2023-02-13T22:20:46.735Z,5.50
2023-02-13T22:23:49.981Z,5.12
2023-02-13T22:26:52.366Z,4.97
2023-02-13T22:29:55.810Z,4.60
2023-02-13T22:32:59.632Z,5.93
2023-02-13T22:36:03.528Z,5.65
2023-02-13T22:39:07.931Z,5.25
2023-02-13T22:42:10.927Z,5.70
2023-02-13T22:45:13.381Z,6.00
2023-02-13T22:48:16.115Z,6.10
2023-02-13T22:51:21.329Z,5.32
2023-02-13T22:54:24.079Z,6.53
2023-02-13T22:57:26.574Z,6.15
2023-02-13T23:00:29.427Z,6.20
2023-02-13T23:03:33.042Z,6.10
2023-02-13T23:06:35.818Z,6.47
2023-02-13T23:09:38.248Z,5.47
2023-02-13T23:12:45.451Z,5.50
2023-02-13T23:15:50.302Z,6.23
2023-02-13T23:18:57.454Z,6.20
2023-02-13T23:22:00.388Z,6.60
2023-02-13T23:25:08.179Z,5.82
2023-02-13T23:28:10.646Z,6.80
2023-02-13T23:31:13.575Z,6.60
2023-02-13T23:34:16.109Z,6.25
2023-02-13T23:37:19.094Z,6.12
2023-02-13T23:40:21.666Z,6.47
2023-02-13T23:43:24.336Z,6.32
2023-02-13T23:46:27.310Z,6.47
2023-02-13T23:49:30.277Z,7.20
2023-02-13T23:52:33.261Z,7.10
2023-02-13T23:55:35.996Z,6.80
2023-02-13T23:58:38.510Z,6.57
